Time;durP1;ratioP1;P1;durP2;ratioP2;P2;SDS_P1;SDS_P2;PMS_P1;PMS_P2;Temp;Humidity;BMP_temperature;BMP_pressure;BME280_temperature;BME280_humidity;BME280_pressure;Samples;Min_cycle;Max_cycle;Signal;HPM_P1;HPM_P2
2021/08/12 00:01:08;;;;;;;8.02;5.10;;;;;;;19.10;52.25;101894.41;5004908;28;114446;-73
2021/08/12 00:03:36;;;;;;;9.43;4.72;;;;;;;19.07;51.99;101886.53;4979209;28;124355;-73
2021/08/12 00:06:04;;;;;;;6.95;4.82;;;;;;;19.04;52.37;101892.09;4983283;28;124589;-73
2021/08/12 00:08:31;;;;;;;7.25;5.03;;;;;;;19.00;52.12;101886.06;5001854;28;115328;-74
2021/08/12 00:10:59;;;;;;;7.07;4.82;;;;;;;18.97;51.99;101885.41;4995659;28;115291;-73
2021/08/12 00:13:26;;;;;;;6.85;4.43;;;;;;;18.94;52.22;101885.59;4986456;28;123377;-73
2021/08/12 00:15:53;;;;;;;8.02;4.95;;;;;;;18.89;52.20;101882.34;5002489;28;124829;-73
2021/08/12 00:18:21;;;;;;;6.82;4.53;;;;;;;18.83;52.46;101879.06;5001333;28;114386;-73
2021/08/12 00:20:48;;;;;;;8.82;5.88;;;;;;;18.78;52.55;101870.44;4981598;28;113998;-74
2021/08/12 00:23:18;;;;;;;8.77;5.22;;;;;;;18.74;52.61;101874.28;5007372;28;124279;-74
2021/08/12 00:25:46;;;;;;;7.18;5.10;;;;;;;18.69;52.49;101876.38;4986364;28;123710;-74
2021/08/12 00:28:14;;;;;;;6.60;4.85;;;;;;;18.67;52.71;101879.16;4997900;28;114798;-73
2021/08/12 00:30:41;;;;;;;8.10;5.32;;;;;;;18.62;52.70;101877.72;4967806;28;114238;-73
2021/08/12 00:33:10;;;;;;;7.43;5.35;;;;;;;18.59;52.78;101885.94;5001947;28;123959;-73
2021/08/12 00:35:37;;;;;;;8.57;5.22;;;;;;;18.54;52.80;101883.56;4969634;28;124057;-73
2021/08/12 00:38:04;;;;;;;7.90;5.10;;;;;;;18.51;52.95;101882.88;4988515;28;113576;-73
2021/08/12 00:40:33;;;;;;;7.95;5.60;;;;;;;18.48;53.13;101879.44;4992244;28;113035;-73
2021/08/12 00:43:03;;;;;;;7.90;5.20;;;;;;;18.45;52.97;101885.00;4991246;28;123753;-73
2021/08/12 00:45:30;;;;;;;10.20;5.78;;;;;;;18.42;53.06;101879.84;5007858;28;124666;-73
2021/08/12 00:47:58;;;;;;;8.90;5.38;;;;;;;18.40;53.10;101873.69;5011463;28;114666;-73
2021/08/12 00:50:25;;;;;;;7.43;5.28;;;;;;;18.38;53.11;101872.91;4994049;28;113442;-74
2021/08/12 00:52:52;;;;;;;7.50;5.13;;;;;;;18.35;53.17;101873.13;4993120;28;123935;-73
2021/08/12 00:55:21;;;;;;;8.93;4.82;;;;;;;18.33;53.31;101869.66;4984472;28;123369;-73
2021/08/12 00:57:51;;;;;;;8.65;5.07;;;;;;;18.31;53.32;101860.84;4994725;28;114697;-73
2021/08/12 01:00:19;;;;;;;7.43;4.90;;;;;;;18.31;53.16;101860.84;4995639;28;114694;-73
2021/08/12 01:02:48;;;;;;;7.68;5.38;;;;;;;18.29;53.40;101860.94;4996135;28;123677;-73
2021/08/12 01:05:18;;;;;;;9.13;5.40;;;;;;;18.26;53.13;101857.59;5006418;28;123789;-73
2021/08/12 01:08:02;;;;;;;8.70;5.57;;;;;;;18.24;53.57;101867.53;4987920;28;113595;-73
2021/08/12 01:10:35;;;;;;;9.65;5.70;;;;;;;18.21;53.20;101870.41;5007440;28;115164;-73
2021/08/12 01:13:30;;;;;;;8.90;5.55;;;;;;;18.18;53.29;101873.28;4991646;28;123676;-73
2021/08/12 01:16:01;;;;;;;8.60;5.33;;;;;;;18.14;53.33;101880.66;4978211;28;123218;-73
2021/08/12 01:18:41;;;;;;;8.85;5.43;;;;;;;18.11;53.42;101874.59;4986750;28;114025;-73
2021/08/12 01:21:34;;;;;;;7.90;5.10;;;;;;;18.06;53.39;101873.06;4989674;28;113730;-73
2021/08/12 01:24:06;;;;;;;7.47;5.15;;;;;;;18.04;53.45;101884.81;5001229;28;124965;-73
2021/08/12 01:26:39;;;;;;;8.63;5.05;;;;;;;18.02;53.59;101887.59;4987182;28;127526;-73
2021/08/12 01:29:10;;;;;;;8.00;5.65;;;;;;;18.00;53.55;101889.50;5009471;28;114391;-73
2021/08/12 01:32:02;;;;;;;8.45;5.28;;;;;;;17.97;53.57;101892.38;4986828;28;113834;-73
2021/08/12 01:35:08;;;;;;;9.77;5.95;;;;;;;17.95;53.78;101896.09;4973380;28;123336;-74
2021/08/12 01:37:42;;;;;;;7.93;5.20;;;;;;;17.92;53.81;101891.78;5004672;28;124112;-74
2021/08/12 01:40:12;;;;;;;7.95;5.10;;;;;;;17.90;53.96;101888.34;5009594;28;113828;-74
2021/08/12 01:42:43;;;;;;;8.32;5.18;;;;;;;17.89;54.19;101891.97;4990877;28;113798;-74
2021/08/12 01:45:16;;;;;;;8.88;5.03;;;;;;;17.88;54.41;101890.25;4985539;28;123171;-74
2021/08/12 01:47:44;;;;;;;9.77;5.60;;;;;;;17.89;54.07;101891.97;4986004;28;122845;-74
2021/08/12 01:50:16;;;;;;;7.90;5.40;;;;;;;17.88;54.27;101901.81;4980303;28;114451;-75
2021/08/12 01:52:47;;;;;;;11.32;6.00;;;;;;;17.86;54.53;101897.53;4982620;28;114385;-74
2021/08/12 01:55:20;;;;;;;10.98;5.65;;;;;;;17.83;54.73;101886.94;4984770;28;124335;-74
2021/08/12 01:57:49;;;;;;;10.02;6.25;;;;;;;17.79;54.66;101880.88;4992220;28;123523;-74
2021/08/12 02:00:17;;;;;;;10.82;6.13;;;;;;;17.80;54.68;101884.44;4988555;28;114058;-74
2021/08/12 02:02:48;;;;;;;10.63;6.38;;;;;;;17.81;54.68;101878.13;4991514;28;113182;-74
2021/08/12 02:05:17;;;;;;;11.68;7.20;;;;;;;17.82;54.89;101879.84;4964660;28;123393;-74
2021/08/12 02:07:47;;;;;;;10.82;6.75;;;;;;;17.83;55.06;101876.22;4989765;28;123233;-74
2021/08/12 02:10:16;;;;;;;10.20;6.18;;;;;;;17.85;55.10;101868.97;4984743;28;113837;-74
2021/08/12 02:12:44;;;;;;;11.88;6.57;;;;;;;17.86;55.16;101876.94;4988090;28;113327;-74
2021/08/12 02:15:12;;;;;;;11.05;6.57;;;;;;;17.87;55.16;101883.16;4984658;28;123820;-74
2021/08/12 02:17:40;;;;;;;10.90;6.90;;;;;;;17.87;55.12;101884.00;5007974;28;124260;-74
2021/08/12 02:20:14;;;;;;;9.90;6.78;;;;;;;17.87;55.19;101877.78;5005640;28;114856;-74
2021/08/12 02:22:52;;;;;;;12.05;7.18;;;;;;;17.88;55.41;101879.53;4990264;28;113410;-74
2021/08/12 02:25:28;;;;;;;11.48;6.50;;;;;;;17.89;55.35;101875.88;4997641;28;124145;-74
2021/08/12 02:27:59;;;;;;;9.68;6.72;;;;;;;17.89;55.61;101863.38;4985810;28;123021;-74
2021/08/12 02:30:26;;;;;;;11.27;7.18;;;;;;;17.92;55.47;101851.59;4979224;28;113869;-74
2021/08/12 02:32:55;;;;;;;10.15;6.60;;;;;;;17.93;55.62;101850.63;4993225;28;113900;-74
2021/08/12 02:35:24;;;;;;;10.77;6.43;;;;;;;17.96;55.59;101855.81;4975251;28;123535;-74
2021/08/12 02:37:56;;;;;;;10.10;6.68;;;;;;;17.96;55.58;101845.06;4978818;28;123345;-74
2021/08/12 02:40:28;;;;;;;12.43;6.60;;;;;;;17.97;55.46;101846.81;4991841;28;115645;-74
2021/08/12 02:42:55;;;;;;;11.35;6.47;;;;;;;17.96;55.47;101845.06;4973813;28;114685;-73
2021/08/12 02:45:25;;;;;;;11.15;6.35;;;;;;;17.97;55.23;101844.13;4969719;28;123436;-73
2021/08/12 02:47:55;;;;;;;10.38;6.13;;;;;;;17.96;55.31;101839.72;4960071;28;123528;-74
2021/08/12 02:50:23;;;;;;;11.45;6.20;;;;;;;17.96;55.25;101839.72;4973074;28;113702;-73
2021/08/12 02:52:51;;;;;;;10.60;6.38;;;;;;;17.94;55.01;101830.91;4974374;28;114798;-74
2021/08/12 02:55:19;;;;;;;8.70;5.78;;;;;;;17.91;55.12;101831.09;4972872;28;123165;-74
2021/08/12 02:57:46;;;;;;;11.85;5.88;;;;;;;17.89;55.04;101838.34;4974612;28;122503;-74
2021/08/12 03:00:14;;;;;;;10.38;5.88;;;;;;;17.87;55.40;101842.94;4957935;28;113081;-74
2021/08/12 03:02:46;;;;;;;8.98;6.20;;;;;;;17.84;55.45;101835.09;4992148;28;114062;-74
2021/08/12 03:05:15;;;;;;;10.60;6.30;;;;;;;17.81;55.23;101835.25;4972966;28;123735;-73
2021/08/12 03:07:44;;;;;;;9.15;5.82;;;;;;;17.80;55.23;101836.19;4992764;28;124046;-73
2021/08/12 03:10:13;;;;;;;10.35;6.15;;;;;;;17.78;55.31;101840.78;4974204;28;114555;-74
2021/08/12 03:12:41;;;;;;;8.63;6.03;;;;;;;17.77;55.32;101823.00;4977214;28;113915;-73
2021/08/12 03:15:10;;;;;;;9.38;6.13;;;;;;;17.74;55.34;101833.88;4988984;28;124119;-74
2021/08/12 03:17:39;;;;;;;9.98;5.60;;;;;;;17.73;55.38;101842.91;4977516;28;123367;-74
2021/08/12 03:20:07;;;;;;;10.50;5.97;;;;;;;17.71;55.37;101849.19;4990056;28;114314;-75
2021/08/12 03:22:35;;;;;;;10.43;6.10;;;;;;;17.68;55.32;101851.19;4977695;28;113963;-74
2021/08/12 03:25:03;;;;;;;8.73;5.60;;;;;;;17.65;55.38;101841.53;4974110;28;123912;-74
2021/08/12 03:27:30;;;;;;;10.93;6.90;;;;;;;17.63;55.40;101835.41;4971410;28;123162;-74
2021/08/12 03:29:58;;;;;;;10.07;6.50;;;;;;;17.63;55.50;101835.41;4976000;28;114618;-74
2021/08/12 03:32:27;;;;;;;8.70;6.00;;;;;;;17.61;55.31;101826.59;4988972;28;115093;-74
2021/08/12 03:34:54;;;;;;;9.75;6.30;;;;;;;17.59;55.34;101836.50;4992022;28;124231;-74
2021/08/12 03:37:21;;;;;;;9.80;5.53;;;;;;;17.56;55.37;101831.34;4991269;28;124269;-74
2021/08/12 03:39:49;;;;;;;9.13;5.95;;;;;;;17.53;55.52;101836.88;4994164;28;114639;-74
2021/08/12 03:42:16;;;;;;;10.90;6.00;;;;;;;17.52;55.43;101843.19;4979177;28;113198;-74
2021/08/12 03:44:44;;;;;;;11.00;6.20;;;;;;;17.50;55.42;101842.44;4972458;28;123538;-74
2021/08/12 03:47:11;;;;;;;11.40;5.93;;;;;;;17.48;55.40;101844.34;4973545;28;123026;-74
2021/08/12 03:49:38;;;;;;;9.88;5.95;;;;;;;17.45;55.47;101839.16;4973822;28;113681;-74
2021/08/12 03:52:06;;;;;;;9.68;6.35;;;;;;;17.43;55.56;101838.38;4985403;28;114190;-74
2021/08/12 03:54:36;;;;;;;9.52;5.78;;;;;;;17.41;55.49;101848.31;4973853;28;123540;-72
2021/08/12 03:57:05;;;;;;;11.80;5.70;;;;;;;17.38;55.41;101843.13;4988345;28;124528;-72
2021/08/12 03:59:33;;;;;;;10.82;6.32;;;;;;;17.36;55.67;101845.88;4972419;28;114312;-72
2021/08/12 04:02:00;;;;;;;10.75;6.10;;;;;;;17.35;55.75;101843.28;4970349;28;113444;-72
2021/08/12 04:04:28;;;;;;;12.50;6.82;;;;;;;17.33;55.63;101835.38;4985407;28;124131;-72
2021/08/12 04:06:56;;;;;;;11.70;6.28;;;;;;;17.30;55.70;101841.75;4972213;28;123527;-72
2021/08/12 04:09:23;;;;;;;11.75;5.80;;;;;;;17.28;55.65;101849.00;4990504;28;115266;-72
2021/08/12 04:11:50;;;;;;;11.82;6.32;;;;;;;17.24;55.97;101842.09;4969304;28;114063;-72
2021/08/12 04:14:17;;;;;;;10.43;6.03;;;;;;;17.22;55.69;101844.00;4990685;28;124201;-72
2021/08/12 04:16:45;;;;;;;12.68;6.18;;;;;;;17.20;55.66;101845.91;4973367;28;123025;-72
2021/08/12 04:19:14;;;;;;;9.13;5.78;;;;;;;17.19;55.73;101849.53;4973047;28;114134;-72
2021/08/12 04:21:42;;;;;;;10.95;6.45;;;;;;;17.18;55.79;101850.50;4991184;28;114836;-72
2021/08/12 04:24:09;;;;;;;9.38;5.85;;;;;;;17.16;55.81;101860.44;4979066;28;123614;-72
2021/08/12 04:26:37;;;;;;;8.57;6.00;;;;;;;17.15;55.69;101861.38;4994365;28;124166;-73
2021/08/12 04:29:04;;;;;;;9.90;6.13;;;;;;;17.13;55.77;101855.25;4979744;28;113577;-73
2021/08/12 04:31:31;;;;;;;10.38;5.55;;;;;;;17.12;55.65;101858.84;4977904;28;113462;-73
2021/08/12 04:33:59;;;;;;;8.25;5.50;;;;;;;17.10;55.74;101863.44;4991394;28;124042;-73
2021/08/12 04:36:27;;;;;;;10.40;5.90;;;;;;;17.07;55.77;101859.13;4958535;28;123029;-73
2021/08/12 04:38:54;;;;;;;9.35;5.57;;;;;;;17.07;55.82;101866.31;4978646;28;113538;-73
2021/08/12 04:41:22;;;;;;;11.85;6.57;;;;;;;17.05;56.03;101868.19;4976508;28;113400;-73
2021/08/12 04:43:49;;;;;;;10.70;6.50;;;;;;;17.04;55.99;101863.78;4969333;28;123190;-73
2021/08/12 04:46:20;;;;;;;11.93;6.18;;;;;;;17.04;56.08;101863.78;4973460;28;123196;-72
2021/08/12 04:48:47;;;;;;;12.77;6.72;;;;;;;17.05;56.17;101870.88;4972275;28;114979;-73
2021/08/12 04:51:15;;;;;;;14.13;6.43;;;;;;;17.05;56.26;101869.06;4987233;28;114300;-73
2021/08/12 04:53:44;;;;;;;11.93;7.47;;;;;;;17.06;56.37;101864.56;4978253;28;123770;-73
2021/08/12 04:56:11;;;;;;;14.55;8.18;;;;;;;17.07;56.47;101860.94;4975979;28;122915;-72
2021/08/12 04:58:39;;;;;;;11.77;7.95;;;;;;;17.08;56.60;101862.66;4996600;28;114904;-72
2021/08/12 05:01:10;;;;;;;17.13;8.70;;;;;;;17.08;56.71;101857.31;4950098;28;112904;-72
2021/08/12 05:03:38;;;;;;;25.02;10.57;;;;;;;17.10;56.99;101860.75;4998268;28;124752;-72
2021/08/12 05:06:09;;;;;;;17.92;9.50;;;;;;;17.11;57.00;101863.34;4975241;28;123193;-72
2021/08/12 05:08:37;;;;;;;17.55;10.43;;;;;;;17.14;56.95;101867.69;4972214;28;114940;-72
2021/08/12 05:11:08;;;;;;;14.93;8.40;;;;;;;17.17;57.14;101867.50;4980076;28;114290;-73
2021/08/12 05:13:35;;;;;;;20.50;9.73;;;;;;;17.21;57.11;101869.03;4977296;28;122996;-72
2021/08/12 05:16:03;;;;;;;19.48;10.43;;;;;;;17.24;57.04;101868.88;4975589;28;122685;-72
2021/08/12 05:18:32;;;;;;;18.63;10.18;;;;;;;17.25;57.20;101870.63;4976175;28;113478;-72
2021/08/12 05:20:59;;;;;;;21.10;10.70;;;;;;;17.29;57.05;101879.31;4991549;28;114092;-72
2021/08/12 05:23:26;;;;;;;25.20;10.98;;;;;;;17.32;57.27;101877.34;4973458;28;124178;-73
2021/08/12 05:25:53;;;;;;;19.88;11.35;;;;;;;17.35;57.30;101875.41;4975067;28;123801;-73
2021/08/12 05:28:21;;;;;;;23.52;10.93;;;;;;;17.39;57.30;101877.00;4993152;28;114568;-72
2021/08/12 05:30:48;;;;;;;22.17;11.90;;;;;;;17.44;57.42;101880.25;4996410;28;114447;-72
2021/08/12 05:33:16;;;;;;;21.15;11.30;;;;;;;17.47;57.47;101877.41;4995485;28;125081;-73
2021/08/12 05:35:44;;;;;;;25.42;12.13;;;;;;;17.50;57.69;101869.22;4994428;28;124466;-73
2021/08/12 05:38:13;;;;;;;23.70;12.95;;;;;;;17.56;57.71;101874.22;4990912;28;114291;-73
2021/08/12 05:40:42;;;;;;;22.55;13.18;;;;;;;17.61;57.68;101869.44;4978281;28;113862;-72
2021/08/12 05:43:09;;;;;;;20.45;12.35;;;;;;;17.68;57.98;101867.25;4977350;28;124842;-71
2021/08/12 05:45:36;;;;;;;18.92;11.95;;;;;;;17.76;57.89;101874.84;4971240;28;123256;-71
2021/08/12 05:48:04;;;;;;;20.42;12.68;;;;;;;17.83;57.97;101876.22;4995548;28;117197;-72
2021/08/12 05:50:31;;;;;;;21.30;12.30;;;;;;;17.90;58.08;101882.97;4975420;28;114288;-72
2021/08/12 05:52:58;;;;;;;22.17;12.82;;;;;;;17.99;58.14;101882.44;4993521;28;124787;-72
2021/08/12 05:55:25;;;;;;;20.60;13.13;;;;;;;18.06;58.16;101889.16;4973613;28;122844;-74
2021/08/12 05:57:53;;;;;;;20.98;12.93;;;;;;;18.15;58.07;101892.22;4975394;28;114448;-74
2021/08/12 06:00:20;;;;;;;17.95;12.52;;;;;;;18.22;58.09;101880.19;4983205;28;114008;-74
2021/08/12 06:02:53;;;;;;;19.33;12.13;;;;;;;18.29;58.07;101878.88;4974729;28;123895;-74
2021/08/12 06:05:29;;;;;;;19.67;12.27;;;;;;;18.38;58.16;101878.28;4973723;28;123264;-73
2021/08/12 06:08:03;;;;;;;16.85;11.82;;;;;;;18.46;58.14;101877.81;4973555;28;113677;-74
2021/08/12 06:10:33;;;;;;;17.55;11.82;;;;;;;18.54;58.13;101886.25;4978125;28;112958;-73
2021/08/12 06:13:03;;;;;;;18.48;11.75;;;;;;;18.64;58.12;101879.34;4983240;28;123145;-74
2021/08/12 06:15:34;;;;;;;19.70;11.75;;;;;;;18.73;58.46;101872.53;4977322;28;123348;-74
2021/08/12 06:18:07;;;;;;;17.13;11.60;;;;;;;18.81;58.20;101875.63;4974141;28;113416;-74
2021/08/12 06:20:35;;;;;;;18.08;11.43;;;;;;;18.92;58.25;101866.03;4992715;28;114075;-75
2021/08/12 06:23:05;;;;;;;17.70;11.07;;;;;;;19.01;58.23;101876.19;4976745;28;123714;-73
2021/08/12 06:25:44;;;;;;;17.75;10.90;;;;;;;19.11;58.07;101877.31;4971764;28;123671;-73
2021/08/12 06:28:12;;;;;;;17.20;11.15;;;;;;;19.22;58.21;101868.56;4990632;28;114384;-73
2021/08/12 06:30:40;;;;;;;17.20;11.45;;;;;;;19.34;58.22;101874.94;4978129;28;113213;-73
2021/08/12 06:33:09;;;;;;;20.75;11.60;;;;;;;19.44;58.15;101879.63;4982066;28;124019;-73
2021/08/12 06:35:36;;;;;;;18.02;11.57;;;;;;;19.56;58.19;101883.31;4979239;28;123802;-73
2021/08/12 06:38:07;;;;;;;17.63;10.82;;;;;;;19.69;58.31;101893.25;4984755;28;113898;-73
2021/08/12 06:40:35;;;;;;;18.02;10.80;;;;;;;19.81;58.31;101892.47;4996025;28;114737;-75
2021/08/12 06:43:02;;;;;;;19.10;10.75;;;;;;;19.96;58.40;101896.78;4960487;28;123604;-73
2021/08/12 06:45:45;;;;;;;14.60;9.95;;;;;;;20.11;58.22;101894.03;4974583;28;124197;-73
2021/08/12 06:48:13;;;;;;;16.60;10.50;;;;;;;20.28;58.16;101898.25;4984437;28;114342;-75
2021/08/12 06:50:41;;;;;;;16.10;10.15;;;;;;;20.45;58.07;101891.69;4986927;28;115440;-73
2021/08/12 06:53:10;;;;;;;15.07;10.15;;;;;;;20.62;58.06;101894.06;4969557;28;124067;-72
2021/08/12 06:55:39;;;;;;;15.85;10.70;;;;;;;20.80;58.05;101900.00;4971497;28;123329;-73
2021/08/12 06:58:06;;;;;;;14.13;10.40;;;;;;;20.99;57.88;101896.84;4974194;28;114449;-73
2021/08/12 07:00:33;;;;;;;16.88;11.60;;;;;;;21.17;57.82;101900.00;4975689;22;113482;-72
2021/08/12 07:03:02;;;;;;;17.75;11.43;;;;;;;21.36;57.61;101888.72;4987371;28;123537;-72
2021/08/12 07:05:30;;;;;;;15.38;10.52;;;;;;;21.56;57.33;101893.53;4987951;28;123943;-72
2021/08/12 07:07:59;;;;;;;15.77;10.25;;;;;;;21.76;57.23;101896.59;4987881;28;113750;-72
2021/08/12 07:10:27;;;;;;;15.35;11.13;;;;;;;21.93;57.20;101893.44;4983493;28;113140;-72
2021/08/12 07:12:54;;;;;;;16.20;10.57;;;;;;;22.12;56.75;101892.03;4986721;28;123664;-72
2021/08/12 07:15:21;;;;;;;16.10;10.70;;;;;;;22.29;56.55;101888.91;4985700;28;122934;-73
2021/08/12 07:17:49;;;;;;;14.20;10.65;;;;;;;22.45;56.28;101882.31;4988541;28;113301;-72
2021/08/12 07:20:18;;;;;;;15.05;10.38;;;;;;;22.61;56.03;101882.81;4988326;28;112962;-73
2021/08/12 07:22:47;;;;;;;15.30;11.15;;;;;;;22.78;55.90;101875.22;4988600;28;123433;-71
2021/08/12 07:25:22;;;;;;;16.42;10.98;;;;;;;22.98;55.79;101879.88;4987664;28;123235;-73
2021/08/12 07:27:50;;;;;;;17.05;10.93;;;;;;;23.18;55.77;101880.09;4988763;28;113833;-73
2021/08/12 07:30:19;;;;;;;13.00;9.82;;;;;;;23.38;55.46;101882.03;4988949;28;114308;-73
2021/08/12 07:32:46;;;;;;;14.25;9.70;;;;;;;23.58;55.07;101882.19;4987105;28;123393;-75
2021/08/12 07:35:17;;;;;;;14.25;9.32;;;;;;;23.75;54.87;101884.31;4987230;28;123329;-75
2021/08/12 07:37:45;;;;;;;13.63;9.82;;;;;;;23.94;54.83;101882.78;4971108;28;115410;-75
2021/08/12 07:40:13;;;;;;;14.10;9.63;;;;;;;24.13;54.56;101877.53;4988289;28;114771;-75
2021/08/12 07:42:40;;;;;;;13.23;9.85;;;;;;;24.32;53.85;101875.91;4988675;28;124449;-74
2021/08/12 07:45:08;;;;;;;13.38;9.82;;;;;;;24.48;53.68;101881.72;4984335;28;124623;-75
2021/08/12 07:47:35;;;;;;;15.80;10.57;;;;;;;24.66;53.61;101885.53;4987840;28;114724;-74
2021/08/12 07:50:11;;;;;;;13.45;9.50;;;;;;;24.83;53.49;101888.63;4984963;28;113633;-75
2021/08/12 07:52:41;;;;;;;15.02;9.77;;;;;;;25.02;53.02;101879.69;4956622;28;123825;-75
2021/08/12 07:55:10;;;;;;;14.25;9.65;;;;;;;25.17;52.61;101882.88;4989887;28;123809;-74
2021/08/12 07:57:37;;;;;;;15.35;9.73;;;;;;;25.34;52.39;101889.50;4971854;28;113448;-75
2021/08/12 08:00:05;;;;;;;14.43;9.73;;;;;;;25.49;51.93;101881.81;4985481;28;114419;-75
2021/08/12 08:02:45;;;;;;;12.60;9.20;;;;;;;25.62;51.70;101887.81;4989391;28;124874;-75
2021/08/12 08:05:17;;;;;;;14.65;9.68;;;;;;;25.77;51.72;101889.09;4986943;28;123882;-75
2021/08/12 08:07:46;;;;;;;13.60;9.23;;;;;;;25.93;51.40;101884.97;4984152;28;114024;-75
2021/08/12 08:10:14;;;;;;;13.35;10.00;;;;;;;26.07;51.13;101881.81;4981333;28;113552;-75
2021/08/12 08:12:42;;;;;;;13.30;10.05;;;;;;;26.20;50.96;101882.34;4978102;28;124514;-75
2021/08/12 08:15:11;;;;;;;15.07;10.05;;;;;;;26.32;50.67;101868.59;4988008;28;124646;-76
2021/08/12 08:17:57;;;;;;;11.50;8.45;;;;;;;26.46;49.84;101881.69;4975028;28;113390;-75
2021/08/12 08:20:25;;;;;;;11.40;8.52;;;;;;;26.58;49.71;101879.69;4989390;28;114268;-76
2021/08/12 08:22:52;;;;;;;13.20;8.45;;;;;;;26.68;49.19;101885.94;4990290;28;124606;-75
2021/08/12 08:25:19;;;;;;;11.98;8.18;;;;;;;26.73;48.86;101888.19;4974279;28;123367;-76
2021/08/12 08:27:46;;;;;;;10.75;7.90;;;;;;;26.78;48.74;101891.34;4985034;28;115004;-75
2021/08/12 08:30:26;;;;;;;10.98;7.22;;;;;;;26.86;48.33;101887.84;4986089;28;114199;-75
2021/08/12 08:32:53;;;;;;;10.95;7.43;;;;;;;26.90;48.11;101884.72;4986486;28;123211;-74
2021/08/12 08:35:20;;;;;;;9.38;6.82;;;;;;;26.94;47.47;101880.69;4989225;28;123945;-75
2021/08/12 08:37:47;;;;;;;11.00;7.82;;;;;;;27.00;47.56;101880.06;4988448;28;114414;-74
2021/08/12 08:40:16;;;;;;;10.88;7.53;;;;;;;27.09;47.28;101888.34;4984511;28;113502;-75
2021/08/12 08:42:45;;;;;;;9.18;6.85;;;;;;;27.15;47.45;101887.72;4987444;28;124023;-74
2021/08/12 08:45:18;;;;;;;9.15;6.68;;;;;;;27.23;47.34;101885.06;4989276;28;123776;-75
2021/08/12 08:47:46;;;;;;;11.60;7.50;;;;;;;27.32;47.55;101889.63;4980295;28;114439;-74
2021/08/12 08:50:17;;;;;;;9.30;7.10;;;;;;;27.41;46.53;101881.53;5001881;28;114585;-76
2021/08/12 08:52:46;;;;;;;11.98;7.18;;;;;;;27.45;46.50;101888.41;4987468;28;123942;-75
2021/08/12 08:55:20;;;;;;;7.55;5.63;;;;;;;27.51;46.53;101887.78;4987870;28;122254;-75
2021/08/12 08:57:49;;;;;;;7.93;5.85;;;;;;;27.59;46.62;101890.56;4997044;28;114376;-76
2021/08/12 09:00:17;;;;;;;8.20;5.47;;;;;;;27.68;46.03;101895.09;4986256;28;113452;-75
2021/08/12 09:02:46;;;;;;;7.65;5.32;;;;;;;27.73;46.28;101887.31;4981273;28;124054;-75
2021/08/12 09:05:14;;;;;;;6.75;5.10;;;;;;;27.80;45.98;101892.13;4991788;28;123868;-75
2021/08/12 09:07:42;;;;;;;8.60;5.13;;;;;;;27.85;45.41;101889.78;4991306;28;114986;-75
2021/08/12 09:10:16;;;;;;;6.88;4.72;;;;;;;27.91;45.13;101894.63;4992693;28;113639;-75
2021/08/12 09:12:45;;;;;;;6.50;4.75;;;;;;;27.94;45.00;101888.88;4986900;28;124018;-75
2021/08/12 09:15:18;;;;;;;7.45;4.22;;;;;;;28.00;45.09;101892.84;4984765;28;123980;-75
2021/08/12 09:17:47;;;;;;;7.10;4.95;;;;;;;28.07;45.05;101892.06;4991054;28;115766;-75
2021/08/12 09:20:23;;;;;;;6.22;4.40;;;;;;;28.11;44.46;101882.53;4992370;28;115436;-75
2021/08/12 09:23:04;;;;;;;6.55;4.35;;;;;;;28.19;44.01;101880.91;4993193;28;124724;-75
2021/08/12 09:25:34;;;;;;;5.85;4.10;;;;;;;28.26;44.08;101882.81;4991887;28;124588;-74
2021/08/12 09:28:15;;;;;;;4.78;3.88;;;;;;;28.35;44.12;101883.75;4995108;28;113925;-74
2021/08/12 09:31:02;;;;;;;4.40;3.38;;;;;;;28.43;43.78;101878.31;4992961;28;113916;-74
2021/08/12 09:33:34;;;;;;;7.55;3.22;;;;;;;28.56;43.81;101885.22;4982182;28;124783;-75
2021/08/12 09:36:03;;;;;;;7.40;3.90;;;;;;;28.66;43.57;101888.69;4993194;28;123655;-75
2021/08/12 09:38:34;;;;;;;4.80;2.90;;;;;;;28.70;43.12;101879.16;4992452;28;114846;-74
2021/08/12 09:41:03;;;;;;;4.50;3.20;;;;;;;28.73;42.31;101878.84;4993417;28;113553;-75
2021/08/12 09:43:37;;;;;;;5.55;3.15;;;;;;;28.75;42.49;101882.28;4991252;28;124546;-75
2021/08/12 09:46:06;;;;;;;6.53;3.33;;;;;;;28.79;42.92;101883.66;4990007;28;123025;-74
2021/08/12 09:48:33;;;;;;;5.03;2.95;;;;;;;28.84;42.67;101886.75;4983379;28;114367;-75
2021/08/12 09:51:01;;;;;;;4.63;3.10;;;;;;;28.91;42.49;101871.44;4976262;28;113748;-75
2021/08/12 09:53:29;;;;;;;5.05;2.97;;;;;;;29.00;42.42;101875.03;4992463;28;124807;-75
2021/08/12 09:56:14;;;;;;;5.28;3.20;;;;;;;29.06;41.92;101879.81;4992795;28;124098;-74
2021/08/12 09:58:41;;;;;;;6.45;3.22;;;;;;;29.12;42.22;101878.28;4979648;28;114732;-76
2021/08/12 10:01:22;;;;;;;4.85;3.22;;;;;;;29.21;42.02;101877.31;4979249;28;113979;-75
2021/08/12 10:03:54;;;;;;;6.50;3.00;;;;;;;29.28;41.64;101872.91;4982984;28;124342;-75
2021/08/12 10:06:24;;;;;;;5.28;2.97;;;;;;;29.34;41.37;101876.84;4975669;28;122602;-75
2021/08/12 10:08:51;;;;;;;4.95;3.00;;;;;;;29.40;41.34;101875.31;4985771;28;114827;-74
2021/08/12 10:11:30;;;;;;;4.25;3.15;;;;;;;29.47;41.25;101876.38;4992724;28;115076;-75
2021/08/12 10:14:03;;;;;;;6.25;2.95;;;;;;;29.52;41.04;101884.91;4985676;28;125156;-74
2021/08/12 10:16:32;;;;;;;5.45;2.83;;;;;;;29.58;41.12;101873.31;4989416;28;124009;-74
2021/08/12 10:19:02;;;;;;;5.35;2.80;;;;;;;29.64;40.57;101883.53;4992442;28;114578;-74
2021/08/12 10:21:30;;;;;;;4.15;3.00;;;;;;;29.68;40.72;101884.91;4984236;28;114160;-72
2021/08/12 10:23:59;;;;;;;3.85;2.70;;;;;;;29.75;40.92;101873.34;4985617;28;124057;-74
2021/08/12 10:26:29;;;;;;;5.35;3.13;;;;;;;29.86;40.94;101881.19;4986335;28;124685;-74
2021/08/12 10:29:03;;;;;;;5.97;3.45;;;;;;;29.96;40.65;101875.56;4990471;28;114383;-74
2021/08/12 10:31:31;;;;;;;6.13;3.20;;;;;;;30.02;40.47;101874.88;4988660;28;113837;-74
2021/08/12 10:33:58;;;;;;;4.75;3.00;;;;;;;30.04;40.27;101868.19;4971968;28;122686;-74
2021/08/12 10:36:26;;;;;;;3.72;2.75;;;;;;;30.04;39.77;101862.72;5003384;28;123537;-74
2021/08/12 10:38:54;;;;;;;7.18;3.38;;;;;;;30.07;39.79;101859.66;4991605;28;114961;-74
2021/08/12 10:41:23;;;;;;;4.07;2.97;;;;;;;30.12;39.91;101863.75;4990268;28;96828;-75
2021/08/12 10:43:56;;;;;;;4.85;3.00;;;;;;;30.14;39.93;101862.56;4971700;28;123543;-74
2021/08/12 10:46:38;;;;;;;4.95;3.10;;;;;;;30.14;39.81;101856.22;4987978;28;122849;-74
2021/08/12 10:49:32;;;;;;;5.13;3.20;;;;;;;30.15;39.64;101863.41;4989593;28;113298;-75
2021/08/12 10:52:06;;;;;;;5.03;2.90;;;;;;;30.17;39.47;101858.63;4985853;28;112806;-74
2021/08/12 10:54:38;;;;;;;3.28;2.58;;;;;;;30.17;39.47;101850.41;4990921;28;123852;-74
2021/08/12 10:57:20;;;;;;;3.78;2.75;;;;;;;30.21;39.39;101846.31;4986899;28;122796;-73
2021/08/12 10:59:49;;;;;;;4.57;3.00;;;;;;;30.27;39.56;101857.41;4989659;28;115012;-75
2021/08/12 11:02:28;;;;;;;3.90;2.67;;;;;;;30.37;39.44;101851.78;4988749;28;114032;-74
2021/08/12 11:05:03;;;;;;;5.60;3.15;;;;;;;30.43;39.20;101850.22;4988897;28;123578;-75
2021/08/12 11:07:39;;;;;;;4.40;3.03;;;;;;;30.49;39.81;101848.66;4979894;28;122637;-75
2021/08/12 11:10:12;;;;;;;4.75;2.90;;;;;;;30.58;39.40;101853.06;4994058;28;113149;-74
2021/08/12 11:12:57;;;;;;;3.75;2.72;;;;;;;30.64;39.74;101853.19;4993323;28;114911;-75
2021/08/12 11:15:53;;;;;;;4.68;2.80;;;;;;;30.71;39.19;101853.34;4986303;28;123834;-75
2021/08/12 11:18:43;;;;;;;5.97;3.00;;;;;;;30.78;39.20;101848.88;4977036;28;123614;-73
2021/08/12 11:21:29;;;;;;;5.40;3.03;;;;;;;30.85;39.03;101855.34;4982063;28;114371;-74
2021/08/12 11:24:07;;;;;;;3.63;2.58;;;;;;;30.91;39.07;101847.47;4985602;28;113939;-75
2021/08/12 11:26:54;;;;;;;4.88;3.10;;;;;;;30.95;39.08;101854.28;4990646;28;124038;-74